createdAt,value
2023-02-06T00:01:35.319Z,100.00
2023-02-06T00:04:44.755Z,100.00
2023-02-06T00:07:53.208Z,100.00
2023-02-06T00:11:03.875Z,100.00
2023-02-06T00:14:11.873Z,100.00
2023-02-06T00:17:20.929Z,100.00
2023-02-06T00:20:26.566Z,100.00
2023-02-06T00:23:34.855Z,100.00
2023-02-06T00:26:41.548Z,100.00
2023-02-06T00:29:48.703Z,100.00
2023-02-06T00:32:53.934Z,100.00
2023-02-06T00:36:04.531Z,100.00
2023-02-06T00:39:13.949Z,100.00
2023-02-06T00:42:21.958Z,100.00
2023-02-06T00:45:30.376Z,100.00
2023-02-06T00:48:40.235Z,100.00
2023-02-06T00:51:48.765Z,100.00
2023-02-06T00:54:55.464Z,100.00
2023-02-06T00:58:04.812Z,100.00
2023-02-06T01:01:14.006Z,100.00
2023-02-06T01:04:22.738Z,100.00
2023-02-06T01:07:31.123Z,100.00
2023-02-06T01:10:39.594Z,100.00
2023-02-06T01:13:49.455Z,100.00
2023-02-06T01:16:58.018Z,100.00
2023-02-06T01:20:08.837Z,100.00
2023-02-06T01:23:17.310Z,100.00
2023-02-06T01:26:29.089Z,100.00
2023-02-06T01:29:37.993Z,100.00
2023-02-06T01:32:44.977Z,100.00
2023-02-06T01:35:58.717Z,100.00
2023-02-06T01:39:06.965Z,100.00
2023-02-06T01:42:15.687Z,100.00
2023-02-06T01:45:23.468Z,100.00
2023-02-06T01:48:41.108Z,100.00
2023-02-06T01:51:51.754Z,100.00
2023-02-06T01:55:01.772Z,100.00
2023-02-06T01:58:12.290Z,100.00
2023-02-06T02:01:21.776Z,100.00
2023-02-06T02:04:32.192Z,100.00
2023-02-06T02:07:41.659Z,100.00
2023-02-06T02:10:50.416Z,100.00
2023-02-06T02:13:57.432Z,100.00
2023-02-06T02:17:14.703Z,100.00
2023-02-06T02:20:29.769Z,100.00
2023-02-06T02:23:48.053Z,100.00
2023-02-06T02:26:58.001Z,100.00
2023-02-06T02:30:23.333Z,100.00
2023-02-06T02:33:38.132Z,100.00
2023-02-06T02:37:00.282Z,100.00
2023-02-06T02:40:08.001Z,100.00
2023-02-06T02:43:24.261Z,100.00
2023-02-06T02:46:35.407Z,100.00
2023-02-06T02:49:55.001Z,100.00
2023-02-06T02:53:05.353Z,100.00
2023-02-06T02:56:19.899Z,100.00
2023-02-06T02:59:29.613Z,100.00
2023-02-06T03:02:40.242Z,100.00
2023-02-06T03:06:02.367Z,100.00
2023-02-06T03:09:10.618Z,100.00
2023-02-06T03:12:34.326Z,100.00
2023-02-06T03:15:51.961Z,100.00
2023-02-06T03:19:07.777Z,100.00
2023-02-06T03:22:17.317Z,100.00
2023-02-06T03:25:26.159Z,100.00
2023-02-06T03:28:37.580Z,100.00
2023-02-06T03:31:57.560Z,100.00
2023-02-06T03:35:10.477Z,100.00
2023-02-06T03:38:19.714Z,100.00
2023-02-06T03:41:30.626Z,100.00
2023-02-06T03:44:38.970Z,100.00
2023-02-06T03:47:49.523Z,100.00
2023-02-06T03:50:59.025Z,100.00
2023-02-06T03:54:09.372Z,100.00
2023-02-06T03:57:16.414Z,100.00
2023-02-06T04:00:23.840Z,100.00
2023-02-06T04:03:32.175Z,100.00
2023-02-06T04:06:37.704Z,100.00
2023-02-06T04:09:49.158Z,100.00
2023-02-06T04:12:55.969Z,100.00
2023-02-06T04:16:07.629Z,100.00
2023-02-06T04:19:17.228Z,100.00
2023-02-06T04:22:26.168Z,100.00
2023-02-06T04:25:37.751Z,100.00
2023-02-06T04:28:48.137Z,100.00
2023-02-06T04:31:57.711Z,100.00
2023-02-06T04:35:07.897Z,100.00
2023-02-06T04:38:17.035Z,100.00
2023-02-06T04:41:25.390Z,100.00
2023-02-06T04:44:35.665Z,100.00
2023-02-06T04:47:44.573Z,100.00
2023-02-06T04:50:52.203Z,100.00
2023-02-06T04:54:04.589Z,100.00
2023-02-06T04:57:10.812Z,100.00
2023-02-06T05:00:18.474Z,100.00
2023-02-06T05:03:24.593Z,100.00
2023-02-06T05:06:34.616Z,100.00
2023-02-06T05:09:42.023Z,100.00
2023-02-06T05:12:53.080Z,100.00
2023-02-06T05:16:02.481Z,100.00
2023-02-06T05:19:12.742Z,100.00
2023-02-06T05:22:20.526Z,100.00
2023-02-06T05:25:29.323Z,100.00
2023-02-06T05:28:34.678Z,100.00
2023-02-06T05:31:44.124Z,100.00
2023-02-06T05:34:52.302Z,100.00
2023-02-06T05:38:00.361Z,100.00
2023-02-06T05:41:06.667Z,100.00
2023-02-06T05:44:15.581Z,100.00
2023-02-06T05:47:20.902Z,100.00
2023-02-06T05:50:25.902Z,100.00
2023-02-06T05:53:30.935Z,100.00
2023-02-06T05:56:38.192Z,100.00
2023-02-06T05:59:43.847Z,100.00
2023-02-06T06:02:50.962Z,100.00
2023-02-06T06:05:59.012Z,100.00
2023-02-06T06:09:03.685Z,100.00
2023-02-06T06:12:11.230Z,100.00
2023-02-06T06:15:16.440Z,100.00
2023-02-06T06:18:20.996Z,100.00
2023-02-06T06:21:26.167Z,100.00
2023-02-06T06:24:32.019Z,100.00
2023-02-06T06:27:39.746Z,100.00
2023-02-06T06:30:45.930Z,100.00
2023-02-06T06:33:54.746Z,100.00
2023-02-06T06:37:01.892Z,100.00
2023-02-06T06:40:05.719Z,100.00
2023-02-06T06:43:11.083Z,100.00
2023-02-06T06:46:15.844Z,100.00
2023-02-06T06:49:19.704Z,100.00
2023-02-06T06:52:25.611Z,100.00
2023-02-06T06:55:29.147Z,100.00
2023-02-06T06:58:32.664Z,100.00
2023-02-06T07:01:36.102Z,99.85
2023-02-06T07:04:40.376Z,99.71
2023-02-06T07:07:45.289Z,100.00
2023-02-06T07:10:51.059Z,99.61
2023-02-06T07:13:55.672Z,98.96
2023-02-06T07:17:00.172Z,97.54
2023-02-06T07:20:04.179Z,98.37
2023-02-06T07:23:08.517Z,94.47
2023-02-06T07:26:13.126Z,93.62
2023-02-06T07:29:16.356Z,92.00
2023-02-06T07:32:20.382Z,93.09
2023-02-06T07:35:24.166Z,92.95
2023-02-06T07:38:27.697Z,92.37
2023-02-06T07:41:31.220Z,90.34
2023-02-06T07:44:36.221Z,91.74
2023-02-06T07:47:40.720Z,90.21
2023-02-06T07:50:46.394Z,88.46
2023-02-06T07:53:50.446Z,89.11
2023-02-06T07:56:54.752Z,86.61
2023-02-06T07:59:58.930Z,83.24
2023-02-06T08:03:03.419Z,83.63
2023-02-06T08:06:08.482Z,79.97
2023-02-06T08:09:14.305Z,78.66
2023-02-06T08:12:23.224Z,77.11
2023-02-06T08:15:27.590Z,78.07
2023-02-06T08:18:32.637Z,72.16
2023-02-06T08:21:37.844Z,74.16
2023-02-06T08:24:47.026Z,73.23
2023-02-06T08:28:00.685Z,72.09
2023-02-06T08:31:14.654Z,68.39
2023-02-06T08:34:19.317Z,64.67
2023-02-06T08:37:24.161Z,62.86
2023-02-06T08:40:27.723Z,64.68
2023-02-06T08:43:33.226Z,65.70
2023-02-06T08:46:38.179Z,64.84
2023-02-06T08:49:42.792Z,64.19
2023-02-06T08:52:49.875Z,63.10
2023-02-06T08:56:01.670Z,62.47
2023-02-06T08:59:09.656Z,63.84
2023-02-06T09:02:14.261Z,63.44
2023-02-06T09:05:19.181Z,63.52
2023-02-06T09:08:23.400Z,64.04
2023-02-06T09:11:27.955Z,63.67
2023-02-06T09:14:32.776Z,64.40
2023-02-06T09:17:36.702Z,63.55
2023-02-06T09:20:40.806Z,63.53
2023-02-06T09:23:48.120Z,64.88
2023-02-06T09:26:59.792Z,64.21
2023-02-06T09:30:05.280Z,64.64
2023-02-06T09:33:12.584Z,62.73
2023-02-06T09:36:17.222Z,62.77
2023-02-06T09:39:20.974Z,63.66
2023-02-06T09:42:31.989Z,66.01
2023-02-06T09:45:36.512Z,65.99
2023-02-06T09:48:43.374Z,64.32
2023-02-06T09:52:02.437Z,63.93
2023-02-06T09:55:15.100Z,65.22
2023-02-06T09:58:40.140Z,66.28
2023-02-06T10:01:56.105Z,67.49
2023-02-06T10:05:18.142Z,65.85
2023-02-06T10:08:28.398Z,63.59
2023-02-06T10:11:41.326Z,62.75
2023-02-06T10:14:52.658Z,62.17
2023-02-06T10:18:02.891Z,63.40
2023-02-06T10:21:15.274Z,63.17
2023-02-06T10:24:47.950Z,63.18
2023-02-06T10:27:57.815Z,60.72
2023-02-06T10:31:14.755Z,61.48
2023-02-06T10:34:19.188Z,60.06
2023-02-06T10:37:38.542Z,59.18
2023-02-06T10:40:55.268Z,59.58
2023-02-06T10:44:03.732Z,59.50
2023-02-06T10:47:26.780Z,59.61
2023-02-06T10:50:51.262Z,57.30
2023-02-06T10:53:58.394Z,58.44
2023-02-06T10:57:02.814Z,58.22
2023-02-06T11:00:14.874Z,58.45
2023-02-06T11:03:21.288Z,58.20
2023-02-06T11:06:27.051Z,57.36
2023-02-06T11:09:31.985Z,56.22
2023-02-06T11:12:41.684Z,55.03
2023-02-06T11:16:03.068Z,55.20
2023-02-06T11:19:15.063Z,54.96
2023-02-06T11:22:32.080Z,55.98
2023-02-06T11:25:39.491Z,54.93
2023-02-06T11:28:54.626Z,54.40
2023-02-06T11:32:03.393Z,54.72
2023-02-06T11:35:29.928Z,54.48
2023-02-06T11:38:35.445Z,53.43
2023-02-06T11:41:39.864Z,47.56
2023-02-06T11:44:44.824Z,44.27
2023-02-06T11:47:48.776Z,42.14
2023-02-06T11:50:55.405Z,41.10
2023-02-06T11:54:00.289Z,42.73
2023-02-06T11:57:04.298Z,44.22
2023-02-06T12:00:23.724Z,43.65
2023-02-06T12:03:28.233Z,43.79
2023-02-06T12:06:36.641Z,39.37
2023-02-06T12:09:40.062Z,41.60
2023-02-06T12:12:47.606Z,41.20
2023-02-06T12:15:54.448Z,39.01
2023-02-06T12:19:00.012Z,38.65
2023-02-06T12:22:16.507Z,40.89
2023-02-06T12:25:55.342Z,41.57
2023-02-06T12:29:17.802Z,38.53
2023-02-06T12:32:32.666Z,39.08
2023-02-06T12:35:49.818Z,42.30
2023-02-06T12:38:58.372Z,43.00
2023-02-06T12:42:02.142Z,39.20
2023-02-06T12:45:05.792Z,38.91
2023-02-06T12:48:15.126Z,38.35
2023-02-06T12:51:23.327Z,40.13
2023-02-06T12:54:34.248Z,41.81
2023-02-06T12:57:38.542Z,43.64
2023-02-06T13:00:52.595Z,46.18
2023-02-06T13:03:57.855Z,47.73
2023-02-06T13:07:10.141Z,47.49
2023-02-06T13:10:17.587Z,46.10
2023-02-06T13:13:29.526Z,46.13
2023-02-06T13:16:51.018Z,46.47
2023-02-06T13:19:56.071Z,46.06
2023-02-06T13:23:13.425Z,46.13
2023-02-06T13:26:18.194Z,45.49
2023-02-06T13:29:26.260Z,46.85
2023-02-06T13:32:31.547Z,46.01
2023-02-06T13:35:35.797Z,48.33
2023-02-06T13:38:42.996Z,45.37
2023-02-06T13:41:46.501Z,47.88
2023-02-06T13:44:52.562Z,49.78
2023-02-06T13:48:25.436Z,49.38
2023-02-06T13:51:44.368Z,48.79
2023-02-06T13:55:06.648Z,49.95
2023-02-06T13:58:28.277Z,50.85
2023-02-06T14:01:32.375Z,51.01
2023-02-06T14:04:38.254Z,52.11
2023-02-06T14:07:47.282Z,51.50
2023-02-06T14:11:19.518Z,52.35
2023-02-06T14:14:33.301Z,53.39
2023-02-06T14:17:37.687Z,54.29
2023-02-06T14:20:49.433Z,53.00
2023-02-06T14:23:55.735Z,52.82
2023-02-06T14:27:32.101Z,53.71
2023-02-06T14:30:51.471Z,54.26
2023-02-06T14:34:14.508Z,53.50
2023-02-06T14:37:37.479Z,53.84
2023-02-06T14:40:43.518Z,54.89
2023-02-06T14:43:49.828Z,55.32
2023-02-06T14:46:53.953Z,55.33
2023-02-06T14:49:59.939Z,55.30
2023-02-06T14:53:03.440Z,55.60
2023-02-06T14:56:09.136Z,55.28
2023-02-06T14:59:14.136Z,55.60
2023-02-06T15:02:23.976Z,55.88
2023-02-06T15:05:29.058Z,56.40
2023-02-06T15:08:35.491Z,56.68
2023-02-06T15:11:41.088Z,56.88
2023-02-06T15:14:54.451Z,57.49
2023-02-06T15:17:59.280Z,57.71
2023-02-06T15:21:09.508Z,57.62
2023-02-06T15:24:16.002Z,58.69
2023-02-06T15:27:20.278Z,58.43
2023-02-06T15:30:26.991Z,58.67
2023-02-06T15:33:33.122Z,59.49
2023-02-06T15:36:38.716Z,59.24
2023-02-06T15:39:43.148Z,59.41
2023-02-06T15:42:48.220Z,59.97
2023-02-06T15:45:57.228Z,60.92
2023-02-06T15:49:01.498Z,61.49
2023-02-06T15:52:06.122Z,61.18
2023-02-06T15:55:27.123Z,60.58
2023-02-06T15:58:34.853Z,62.17
2023-02-06T16:01:41.812Z,62.40
2023-02-06T16:04:52.289Z,62.18
2023-02-06T16:07:57.762Z,61.47
2023-02-06T16:11:27.596Z,62.08
2023-02-06T16:14:32.827Z,61.96
2023-02-06T16:17:42.582Z,63.55
2023-02-06T16:20:47.992Z,63.72
2023-02-06T16:24:04.358Z,64.73
2023-02-06T16:27:27.210Z,65.28
2023-02-06T16:30:37.845Z,65.94
2023-02-06T16:33:45.161Z,66.75
2023-02-06T16:36:50.881Z,67.32
2023-02-06T16:39:58.988Z,67.88
2023-02-06T16:43:08.650Z,68.54
2023-02-06T16:46:20.030Z,68.67
2023-02-06T16:49:28.949Z,69.02
2023-02-06T16:52:36.399Z,69.91
2023-02-06T16:55:44.728Z,70.70
2023-02-06T16:58:51.435Z,69.98
2023-02-06T17:02:00.482Z,69.71
2023-02-06T17:05:10.848Z,70.51
2023-02-06T17:08:18.931Z,71.83
2023-02-06T17:11:28.193Z,71.38
2023-02-06T17:14:37.982Z,72.48
2023-02-06T17:17:45.128Z,72.64
2023-02-06T17:20:58.709Z,73.18
2023-02-06T17:24:04.110Z,73.92
2023-02-06T17:27:14.340Z,73.62
2023-02-06T17:30:22.133Z,72.95
2023-02-06T17:33:28.819Z,74.45
2023-02-06T17:36:41.535Z,75.34
2023-02-06T17:39:53.065Z,76.21
2023-02-06T17:43:00.378Z,75.99
2023-02-06T17:46:08.416Z,76.48
2023-02-06T17:49:17.152Z,76.66
2023-02-06T17:52:25.198Z,79.57
2023-02-06T17:55:32.069Z,80.55
2023-02-06T17:58:40.409Z,83.09
2023-02-06T18:01:46.706Z,83.73
2023-02-06T18:04:54.183Z,87.16
2023-02-06T18:08:01.825Z,87.29
2023-02-06T18:11:17.150Z,89.42
2023-02-06T18:14:23.149Z,91.41
2023-02-06T18:17:32.840Z,91.32
2023-02-06T18:20:43.735Z,91.18
2023-02-06T18:23:50.246Z,91.24
2023-02-06T18:26:56.666Z,92.11
2023-02-06T18:30:05.631Z,93.37
2023-02-06T18:33:16.404Z,91.28
2023-02-06T18:36:27.521Z,93.08
2023-02-06T18:39:33.916Z,94.08
2023-02-06T18:42:59.066Z,96.80
2023-02-06T18:46:09.722Z,97.72
2023-02-06T18:49:16.567Z,97.65
2023-02-06T18:52:21.650Z,96.78
2023-02-06T18:55:32.148Z,97.68
2023-02-06T18:58:40.592Z,98.19
2023-02-06T19:01:48.418Z,99.94
2023-02-06T19:04:56.508Z,100.00
2023-02-06T19:08:04.562Z,98.84
2023-02-06T19:11:13.974Z,99.53
2023-02-06T19:14:25.120Z,100.00
2023-02-06T19:17:33.981Z,98.66
2023-02-06T19:20:43.156Z,100.00
2023-02-06T19:23:49.642Z,100.00
2023-02-06T19:26:58.160Z,100.00
2023-02-06T19:30:06.625Z,99.81
2023-02-06T19:33:17.985Z,99.29
2023-02-06T19:36:27.421Z,100.00
2023-02-06T19:39:37.627Z,100.00
2023-02-06T19:42:46.788Z,100.00
2023-02-06T19:45:58.116Z,100.00
2023-02-06T19:49:06.611Z,100.00
2023-02-06T19:52:15.770Z,100.00
2023-02-06T19:55:21.552Z,100.00
2023-02-06T19:58:34.462Z,100.00
2023-02-06T20:01:42.300Z,100.00
2023-02-06T20:04:52.067Z,100.00
2023-02-06T20:08:01.495Z,100.00
2023-02-06T20:11:12.376Z,100.00
2023-02-06T20:14:21.548Z,100.00
2023-02-06T20:17:33.840Z,100.00
2023-02-06T20:20:42.339Z,100.00
2023-02-06T20:23:48.538Z,100.00
2023-02-06T20:26:56.422Z,100.00
2023-02-06T20:30:00.613Z,100.00
2023-02-06T20:33:04.478Z,100.00
2023-02-06T20:36:12.292Z,100.00
2023-02-06T20:39:19.421Z,100.00
2023-02-06T20:42:28.485Z,100.00
2023-02-06T20:45:40.599Z,100.00
2023-02-06T20:48:54.691Z,100.00
2023-02-06T20:52:05.386Z,100.00
2023-02-06T20:55:14.969Z,100.00
2023-02-06T20:58:23.582Z,100.00
2023-02-06T21:01:33.019Z,100.00
2023-02-06T21:04:40.265Z,100.00
2023-02-06T21:07:50.698Z,100.00
2023-02-06T21:10:58.710Z,100.00
2023-02-06T21:14:10.154Z,100.00
2023-02-06T21:17:17.274Z,100.00
2023-02-06T21:20:25.121Z,100.00
2023-02-06T21:23:30.198Z,100.00
2023-02-06T21:26:36.485Z,100.00
2023-02-06T21:29:43.673Z,100.00
2023-02-06T21:32:50.016Z,100.00
2023-02-06T21:35:58.039Z,100.00
2023-02-06T21:39:10.391Z,100.00
2023-02-06T21:42:17.267Z,100.00
2023-02-06T21:45:24.484Z,100.00
2023-02-06T21:48:31.357Z,100.00
2023-02-06T21:51:44.136Z,100.00
2023-02-06T21:54:47.566Z,100.00
2023-02-06T21:57:54.170Z,100.00
2023-02-06T22:01:00.919Z,100.00
2023-02-06T22:04:10.750Z,100.00
2023-02-06T22:07:16.082Z,100.00
2023-02-06T22:10:21.174Z,100.00
2023-02-06T22:13:26.068Z,100.00
2023-02-06T22:16:34.628Z,100.00
2023-02-06T22:19:40.267Z,100.00
2023-02-06T22:22:47.360Z,100.00
2023-02-06T22:25:55.445Z,100.00
2023-02-06T22:29:03.701Z,100.00
2023-02-06T22:32:09.200Z,100.00
2023-02-06T22:35:12.838Z,100.00
2023-02-06T22:38:17.437Z,100.00
2023-02-06T22:41:21.592Z,100.00
2023-02-06T22:44:27.239Z,100.00
2023-02-06T22:47:32.763Z,100.00
2023-02-06T22:50:37.317Z,100.00
2023-02-06T22:53:44.336Z,100.00
2023-02-06T22:56:54.738Z,100.00
2023-02-06T23:00:03.178Z,100.00
2023-02-06T23:03:10.531Z,100.00
2023-02-06T23:06:17.897Z,100.00
2023-02-06T23:09:30.639Z,100.00
2023-02-06T23:12:37.911Z,100.00
2023-02-06T23:15:48.813Z,100.00
2023-02-06T23:19:02.619Z,100.00
2023-02-06T23:22:13.294Z,100.00
2023-02-06T23:25:19.992Z,100.00
2023-02-06T23:28:26.888Z,100.00
2023-02-06T23:31:36.247Z,100.00
2023-02-06T23:34:43.861Z,100.00
2023-02-06T23:37:51.537Z,100.00
2023-02-06T23:41:03.998Z,100.00
2023-02-06T23:44:11.437Z,100.00
2023-02-06T23:47:17.498Z,100.00
2023-02-06T23:50:25.903Z,100.00
2023-02-06T23:53:35.919Z,100.00
2023-02-06T23:56:45.478Z,100.00
2023-02-06T23:59:54.074Z,100.00
